Time;durP1;ratioP1;P1;durP2;ratioP2;P2;SDS_P1;SDS_P2;PMS_P1;PMS_P2;Temp;Humidity;BMP_temperature;BMP_pressure;BME280_temperature;BME280_humidity;BME280_pressure;Samples;Min_cycle;Max_cycle;Signal;HPM_P1;HPM_P2
2022/05/02 00:00:54;;;;;;;;;28.00;27.33;;;;;11.36;82.49;99640.91;6284855;20;3598157;-52
2022/05/02 00:03:22;;;;;;;;;30.67;26.00;;;;;11.59;82.13;99648.31;6322795;20;3597100;-50
2022/05/02 00:05:52;;;;;;;;;26.33;26.33;;;;;11.19;83.75;99640.19;6287450;20;2860679;-48
2022/05/02 00:08:21;;;;;;;;;31.00;24.50;;;;;11.59;81.75;99640.25;6318631;20;2851450;-48
2022/05/02 00:10:49;;;;;;;;;22.50;20.50;;;;;11.41;81.70;99649.53;6286298;20;2842929;-50
2022/05/02 00:13:18;;;;;;;;;27.00;27.00;;;;;11.55;78.28;99641.41;6288514;20;2852429;-50
2022/05/02 00:15:47;;;;;;;;;26.00;25.00;;;;;11.42;79.74;99648.56;6287926;20;2843973;-54
2022/05/02 00:18:16;;;;;;;;;24.00;24.00;;;;;11.25;80.93;99640.75;6288241;20;2846046;-52
2022/05/02 00:20:44;;;;;;;;;24.00;24.00;;;;;11.46;79.80;99647.41;6285745;20;2845009;-52
2022/05/02 00:23:13;;;;;;;;;24.00;24.00;;;;;11.50;79.65;99648.91;6287236;20;2848266;-53
2022/05/02 00:25:43;;;;;;;;;31.67;28.00;;;;;11.50;77.96;99642.69;6286692;20;3605451;-50
2022/05/02 00:28:14;;;;;;;;;31.33;31.33;;;;;11.87;74.93;99638.41;6321423;20;3595041;-48
2022/05/02 00:30:43;;;;;;;;;30.00;27.00;;;;;11.81;75.18;99642.34;6288032;20;3598135;-52
2022/05/02 00:33:14;;;;;;;;;33.00;27.00;;;;;11.86;74.96;99639.41;6284395;20;3616964;-52
2022/05/02 00:35:43;;;;;;;;;27.67;27.33;;;;;11.99;74.55;99640.28;6321577;20;3595011;-46
2022/05/02 00:38:13;;;;;;;;;28.33;26.67;;;;;12.01;74.08;99641.06;6283526;20;2848187;-47
2022/05/02 00:40:41;;;;;;;;;25.33;25.33;;;;;11.95;73.50;99641.44;6318601;20;3580451;-48
2022/05/02 00:43:09;;;;;;;;;19.00;19.00;;;;;11.75;73.73;99641.94;6284419;20;2500229;-47
2022/05/02 00:45:39;;;;;;;;;24.67;24.67;;;;;11.74;73.69;99632.13;6286029;20;2849300;-47
2022/05/02 00:48:09;;;;;;;;;30.00;24.67;;;;;11.62;74.68;99636.50;6318351;20;3594022;-48
2022/05/02 00:50:47;;;;;;;;;29.00;27.00;;;;;11.57;74.72;99644.88;6316560;20;3608574;-45
2022/05/02 00:53:23;;;;;;;;;29.00;27.00;;;;;11.79;74.27;99648.81;6289905;20;3602269;-44
2022/05/02 00:55:52;;;;;;;;;27.67;26.67;;;;;12.09;72.67;99640.53;6285023;20;2844032;-47
2022/05/02 00:58:22;;;;;;;;;27.67;26.67;;;;;11.89;73.64;99641.00;6317956;20;2856626;-44
2022/05/02 01:00:51;;;;;;;;;32.33;30.33;;;;;11.60;75.12;99633.91;6314763;20;3600340;-48
2022/05/02 01:03:26;;;;;;;;;38.33;33.33;;;;;11.76;74.20;99635.56;6286929;20;3605410;-47
2022/05/02 01:08:45;;;;;;;;;33.67;27.67;;;;;11.84;74.35;99635.91;6317820;20;3603334;-46
2022/05/02 01:11:14;;;;;;;;;27.33;25.33;;;;;11.70;75.89;99641.38;6318278;20;3598143;-47
2022/05/02 01:13:48;;;;;;;;;32.00;25.67;;;;;11.96;75.80;99645.88;6286033;20;2860729;-47
2022/05/02 01:16:20;;;;;;;;;30.33;25.67;;;;;12.04;75.46;99654.28;6319529;20;3594019;-46
2022/05/02 01:18:53;;;;;;;;;30.00;25.67;;;;;11.76;76.29;99655.25;6287155;20;2855537;-47
2022/05/02 01:21:29;;;;;;;;;28.67;28.00;;;;;11.90;74.83;99645.41;6318289;20;2839862;-50
2022/05/02 01:24:05;;;;;;;;;33.67;28.33;;;;;12.00;74.82;99639.31;6317027;20;3604369;-46
2022/05/02 01:26:33;;;;;;;;;20.50;19.50;;;;;11.98;74.74;99643.97;6283969;20;2818009;-46
2022/05/02 01:29:02;;;;;;;;;31.00;26.33;;;;;12.04;73.20;99648.06;6288015;20;3590948;-52
2022/05/02 01:31:32;;;;;;;;;31.00;29.00;;;;;12.07;74.29;99643.31;6285039;20;3602305;-54
2022/05/02 01:34:01;;;;;;;;;29.67;26.67;;;;;11.97;75.64;99647.59;6318604;20;3593956;-51
2022/05/02 01:36:30;;;;;;;;;34.33;31.33;;;;;11.60;77.10;99650.03;6284504;20;2844092;-52
2022/05/02 01:38:59;;;;;;;;;28.67;28.67;;;;;11.27;80.29;99646.88;6317620;20;3602396;-52
2022/05/02 01:41:28;;;;;;;;;33.33;30.33;;;;;11.38;80.21;99645.22;6282017;20;3605396;-48
2022/05/02 01:44:00;;;;;;;;;33.25;31.00;;;;;11.24;81.53;99642.56;6339432;20;3584618;-53
2022/05/02 01:46:29;;;;;;;;;34.00;32.00;;;;;11.60;79.37;99649.19;6282857;20;2847118;-51
2022/05/02 01:48:59;;;;;;;;;30.33;30.00;;;;;11.56;79.02;99648.53;6318036;20;3585689;-53
2022/05/02 01:51:28;;;;;;;;;32.33;28.00;;;;;11.46;81.08;99643.88;6281681;20;3593948;-51
2022/05/02 01:53:58;;;;;;;;;32.00;32.00;;;;;11.43;81.19;99642.25;6316472;20;2869130;-50
2022/05/02 01:56:27;;;;;;;;;29.67;28.00;;;;;11.73;78.04;99642.00;6320942;20;2856621;-52
2022/05/02 01:58:59;;;;;;;;;32.00;30.67;;;;;11.70;78.19;99644.91;6318502;20;3589148;-54
2022/05/02 02:01:28;;;;;;;;;33.33;30.33;;;;;11.58;79.61;99641.19;6281036;20;2857613;-54
2022/05/02 02:06:53;;;;;;;;;32.33;26.67;;;;;11.27;79.44;99636.13;6309855;20;3599212;-53
2022/05/02 02:09:22;;;;;;;;;26.67;26.67;;;;;11.68;78.67;99636.06;6312911;20;3593216;-52
2022/05/02 02:11:51;;;;;;;;;35.00;32.67;;;;;11.55;79.08;99644.09;6273642;20;2849442;-53
2022/05/02 02:14:20;;;;;;;;;32.00;28.00;;;;;11.16;80.58;99637.72;6311803;20;3598152;-54
2022/05/02 02:16:50;;;;;;;;;31.00;29.67;;;;;11.16;80.13;99640.41;6276300;20;3607841;-54
2022/05/02 02:19:19;;;;;;;;;27.00;23.00;;;;;11.32;80.90;99642.06;6312450;20;3587792;-52
2022/05/02 02:21:48;;;;;;;;;34.00;28.00;;;;;11.34;81.05;99638.31;6274298;20;3602277;-52
2022/05/02 02:24:18;;;;;;;;;29.33;27.33;;;;;11.51;79.79;99639.91;6314850;20;2860866;-51
2022/05/02 02:26:47;;;;;;;;;29.00;27.00;;;;;11.30;82.47;99635.94;6315029;20;2846166;-48
2022/05/02 02:29:17;;;;;;;;;29.33;28.00;;;;;11.08;83.29;99628.41;6315803;20;3597107;-47
2022/05/02 02:31:46;;;;;;;;;29.67;28.67;;;;;11.22;81.11;99628.38;6320653;20;3591381;-51
2022/05/02 02:34:15;;;;;;;;;29.00;29.00;;;;;11.16;82.25;99629.66;6283788;20;2858711;-49
2022/05/02 02:36:44;;;;;;;;;31.00;28.67;;;;;11.47;77.95;99632.13;6318928;20;3594010;-52
2022/05/02 02:39:13;;;;;;;;;31.33;29.00;;;;;11.16;79.99;99623.38;6285997;20;3593033;-49
2022/05/02 02:41:42;;;;;;;;;27.00;26.00;;;;;11.27;79.73;99625.38;6316521;20;3592036;-50
2022/05/02 02:44:11;;;;;;;;;27.33;26.67;;;;;11.48;76.92;99629.34;6288638;20;3593966;-49
2022/05/02 02:46:40;;;;;;;;;33.00;32.00;;;;;11.61;77.01;99629.38;6284256;20;3604881;-47
2022/05/02 02:49:09;;;;;;;;;15.00;13.33;;;;;11.33;78.00;99635.75;6315629;20;2816910;-48
2022/05/02 02:51:37;;;;;;;;;29.67;29.67;;;;;11.21;79.56;99643.63;6318822;20;3587723;-48
2022/05/02 02:54:07;;;;;;;;;28.67;27.67;;;;;11.37;78.34;99637.25;6284062;20;3602435;-49
2022/05/02 02:56:35;;;;;;;;;34.33;27.33;;;;;11.53;76.97;99632.59;6321261;20;3604447;-49
2022/05/02 02:59:05;;;;;;;;;32.00;30.00;;;;;11.57;78.10;99634.09;6285596;20;3589815;-51
2022/05/02 03:01:34;;;;;;;;;27.33;26.33;;;;;11.52;76.24;99630.88;6319937;20;3585055;-52
2022/05/02 03:06:01;;;;;;;;;29.00;27.67;;;;;11.15;79.85;99641.34;6281879;20;2844173;-48
2022/05/02 03:06:54;;;;;;;;;28.00;28.00;;;;;11.24;80.28;99641.69;6315508;20;3591969;-52
2022/05/02 03:09:23;;;;;;;;;30.33;29.00;;;;;11.14;80.56;99646.84;6319390;20;3602363;-50
2022/05/02 03:11:52;;;;;;;;;37.33;30.33;;;;;10.99;81.35;99643.28;6284180;20;3615839;-52
2022/05/02 03:14:21;;;;;;;;;28.33;28.00;;;;;10.92;82.60;99639.25;6317544;20;3589822;-46
2022/05/02 03:16:49;;;;;;;;;37.50;34.00;;;;;10.89;81.96;99636.78;6283559;20;2840984;-47
2022/05/02 03:19:19;;;;;;;;;32.33;30.67;;;;;11.15;80.78;99632.41;6285200;20;2859807;-53
2022/05/02 03:21:48;;;;;;;;;33.67;32.33;;;;;11.43;79.22;99636.88;6319194;20;3590958;-49
2022/05/02 03:24:20;;;;;;;;;30.00;27.00;;;;;11.34;79.94;99632.06;6283087;20;3601269;-52
2022/05/02 03:26:48;;;;;;;;;34.00;28.67;;;;;11.17;82.21;99633.19;6318919;20;3604388;-52
2022/05/02 03:29:17;;;;;;;;;25.50;24.00;;;;;10.91;83.10;99634.88;6280619;20;2842991;-52
2022/05/02 03:31:47;;;;;;;;;35.33;30.33;;;;;11.11;83.62;99634.44;6284190;20;3614958;-51
2022/05/02 03:34:16;;;;;;;;;31.67;27.00;;;;;11.28;81.74;99638.72;6315028;20;3597123;-55
2022/05/02 03:36:45;;;;;;;;;27.67;26.67;;;;;11.20;80.85;99636.53;6284033;20;2856599;-49
2022/05/02 03:39:14;;;;;;;;;29.00;27.00;;;;;11.06;81.17;99639.25;6315603;20;3600370;-50
2022/05/02 03:41:44;;;;;;;;;28.33;27.00;;;;;11.11;81.81;99642.50;6282228;20;2854711;-52
2022/05/02 03:44:12;;;;;;;;;31.33;27.67;;;;;11.08;82.39;99640.00;6319584;20;3592918;-50
2022/05/02 03:46:42;;;;;;;;;34.33;26.33;;;;;11.34;80.18;99645.50;6284415;20;3619198;-53
2022/05/02 03:49:11;;;;;;;;;30.00;26.33;;;;;11.19;80.23;99645.56;6314480;20;3596046;-53
2022/05/02 03:51:40;;;;;;;;;33.33;26.67;;;;;11.43;78.74;99647.63;6285698;20;3610636;-54
2022/05/02 03:54:09;;;;;;;;;31.33;30.67;;;;;11.62;77.79;99647.25;6285745;20;2867118;-53
2022/05/02 03:56:38;;;;;;;;;38.33;34.00;;;;;11.41;78.20;99644.16;6316978;20;3593139;-48
2022/05/02 03:59:07;;;;;;;;;35.00;34.00;;;;;11.62;76.87;99644.56;6280197;20;2861189;-47
2022/05/02 04:01:39;;;;;;;;;30.00;28.67;;;;;11.57;77.67;99647.56;6314667;20;3595346;-48
2022/05/02 04:04:08;;;;;;;;;35.33;30.00;;;;;11.52;77.80;99652.38;6281444;20;3616922;-47
2022/05/02 04:06:37;;;;;;;;;31.00;29.33;;;;;11.52;80.02;99652.38;6317148;20;3596093;-48
2022/05/02 04:09:07;;;;;;;;;29.67;29.00;;;;;11.61;79.64;99651.78;6283687;20;2863001;-51
2022/05/02 04:11:36;;;;;;;;;30.33;27.00;;;;;11.72;78.42;99647.50;6317322;20;3587875;-53
2022/05/02 04:14:06;;;;;;;;;28.67;28.33;;;;;11.83;78.11;99650.34;6284480;20;2858693;-50
2022/05/02 04:16:35;;;;;;;;;28.00;25.00;;;;;11.91;77.50;99642.63;6317431;20;3579423;-47
2022/05/02 04:19:04;;;;;;;;;30.33;27.00;;;;;11.88;77.24;99637.47;6285582;20;3600771;-50
2022/05/02 04:21:33;;;;;;;;;37.33;32.67;;;;;11.81;76.88;99646.88;6283777;20;2846284;-50
2022/05/02 04:24:02;;;;;;;;;37.33;36.00;;;;;11.84;78.29;99646.66;6315865;20;3610670;-52
2022/05/02 04:26:32;;;;;;;;;57.33;43.67;;;;;12.18;76.00;99641.72;6284890;20;3619005;-51
2022/05/02 04:29:02;;;;;;;;;51.67;42.00;;;;;12.07;75.41;99642.47;6314807;20;2857543;-52
2022/05/02 04:31:31;;;;;;;;;46.67;39.00;;;;;12.30;74.51;99643.56;6317057;20;3590848;-48
2022/05/02 04:34:00;;;;;;;;;58.00;43.67;;;;;12.16;75.08;99651.72;6282799;20;3603720;-47
2022/05/02 04:36:30;;;;;;;;;42.33;34.67;;;;;12.33;73.99;99643.34;6315412;20;3619092;-51
2022/05/02 04:38:59;;;;;;;;;32.67;29.00;;;;;12.27;73.93;99646.47;6313037;20;2856558;-47
2022/05/02 04:41:30;;;;;;;;;26.00;25.00;;;;;12.23;74.12;99639.56;6315551;20;3585766;-49
2022/05/02 04:44:00;;;;;;;;;36.33;34.33;;;;;12.25;74.30;99637.66;6281420;20;2862861;-46
2022/05/02 04:46:29;;;;;;;;;51.00;40.00;;;;;12.37;75.12;99644.00;6317163;20;3610632;-47
2022/05/02 04:48:58;;;;;;;;;39.67;33.00;;;;;12.46;76.17;99638.84;6282094;20;2868053;-46
2022/05/02 04:51:27;;;;;;;;;37.33;33.33;;;;;12.36;75.63;99640.44;6315841;20;3593003;-45
2022/05/02 04:53:56;;;;;;;;;27.33;26.67;;;;;12.49;75.80;99638.59;6276658;20;3592965;-48
2022/05/02 04:56:25;;;;;;;;;54.50;43.50;;;;;12.37;76.44;99644.84;6313068;20;2859688;-49
2022/05/02 04:58:54;;;;;;;;;38.00;33.00;;;;;12.40;76.86;99643.78;6290252;20;3587788;-53
2022/05/02 05:01:22;;;;;;;;;31.00;31.00;;;;;12.43;77.13;99647.13;6280058;20;2834771;-52
2022/05/02 05:03:58;;;;;;;;;30.33;28.67;;;;;12.41;78.35;99649.06;6283820;20;2845082;-49
2022/05/02 05:06:27;;;;;;;;;34.67;31.67;;;;;12.45;78.40;99647.00;6316154;20;3605598;-51
2022/05/02 05:08:55;;;;;;;;;27.33;27.33;;;;;12.56;77.23;99643.56;6284507;20;3573229;-52
2022/05/02 05:12:22;;;;;;;;;32.67;30.00;;;;;12.42;77.65;99642.69;6278452;20;2854487;-55
2022/05/02 05:19:32;;;;;;;;;31.33;29.67;;;;;12.54;73.66;99664.38;6316333;20;3598189;-45
2022/05/02 05:22:34;;;;;;;;;25.67;24.00;;;;;12.89;73.34;99665.41;6282731;20;3596041;-54
2022/05/02 05:25:46;;;;;;;;;32.00;30.00;;;;;12.92;74.54;99675.97;6283828;20;2841927;-53
2022/05/02 05:28:38;;;;;;;;;31.00;30.00;;;;;12.78;72.93;99670.72;6316637;20;3593138;-51
2022/05/02 05:31:40;;;;;;;;;40.67;33.00;;;;;12.88;74.02;99681.72;6280204;20;3608627;-54
2022/05/02 05:34:47;;;;;;;;;31.33;27.67;;;;;12.94;73.97;99679.41;6316620;20;3600234;-54
2022/05/02 05:37:31;;;;;;;;;34.67;31.67;;;;;13.09;75.51;99679.31;6281258;20;3599279;-54
2022/05/02 05:40:36;;;;;;;;;35.00;32.33;;;;;13.39;73.81;99684.31;6281359;20;3577289;-54
2022/05/02 05:43:43;;;;;;;;;32.67;30.33;;;;;13.30;72.08;99669.69;6279716;20;2844060;-54
2022/05/02 05:46:50;;;;;;;;;31.67;31.00;;;;;13.63;71.26;99681.66;6313594;20;3588862;-50
2022/05/02 05:49:36;;;;;;;;;33.00;30.67;;;;;13.33;72.80;99677.53;6281608;20;3587714;-52
2022/05/02 05:52:27;;;;;;;;;33.67;28.67;;;;;13.26;72.02;99675.38;6284548;20;3559713;-46
2022/05/02 05:58:45;;;;;;;;;31.00;31.00;;;;;13.97;68.82;99682.66;6280190;20;3579456;-49
2022/05/02 06:01:55;;;;;;;;;33.67;30.67;;;;;13.72;69.38;99672.88;6278906;20;3591975;-52
2022/05/02 06:04:27;;;;;;;;;30.67;30.00;;;;;14.25;68.47;99678.75;6275957;20;2850371;-49
2022/05/02 06:06:58;;;;;;;;;32.67;31.67;;;;;14.37;68.55;99685.00;6314627;20;3574206;-52
2022/05/02 06:09:31;;;;;;;;;30.33;28.67;;;;;14.45;68.20;99693.38;6277930;20;3594243;-51
2022/05/02 06:12:02;;;;;;;;;31.00;27.00;;;;;14.12;68.94;99688.75;6276434;20;3600230;-49
2022/05/02 06:20:25;;;;;;;;;36.00;31.33;;;;;14.78;67.46;99690.91;6280437;20;3588846;-49
2022/05/02 06:22:55;;;;;;;;;28.67;27.67;;;;;14.91;67.93;99699.78;6281577;20;3589911;-49
2022/05/02 06:25:29;;;;;;;;;28.33;28.00;;;;;14.97;66.81;99701.97;6280743;20;3578450;-51
2022/05/02 06:27:59;;;;;;;;;31.50;31.00;;;;;15.03;67.16;99706.03;6280701;20;2831518;-47
2022/05/02 06:30:33;;;;;;;;;27.33;25.33;;;;;15.10;67.19;99704.56;6278381;20;3592954;-48
2022/05/02 06:33:13;;;;;;;;;31.67;30.00;;;;;15.33;66.74;99702.72;6311623;20;3570431;-48
2022/05/02 06:36:47;;;;;;;;;28.67;28.33;;;;;15.34;66.79;99702.59;6281189;20;3575259;-51
2022/05/02 06:39:38;;;;;;;;;26.00;26.00;;;;;15.21;66.65;99706.41;6275351;20;3585665;-53
2022/05/02 06:42:24;;;;;;;;;26.67;26.00;;;;;15.35;64.84;99700.75;6308711;20;3583659;-51
2022/05/02 06:45:41;;;;;;;;;27.00;25.33;;;;;15.45;66.20;99708.97;6283800;20;3585244;-47
2022/05/02 06:48:42;;;;;;;;;24.00;24.00;;;;;15.39;62.70;99704.91;6284126;20;3598191;-49
2022/05/02 06:51:29;;;;;;;;;29.33;26.33;;;;;15.39;63.81;99699.50;6281232;20;3589809;-54
2022/05/02 06:54:24;;;;;;;;;35.00;33.33;;;;;15.48;64.00;99709.59;6314528;20;3594122;-55
2022/05/02 06:57:25;;;;;;;;;30.33;29.00;;;;;15.72;63.30;99700.50;6282343;20;3592925;-52
2022/05/02 07:00:15;;;;;;;;;32.67;28.00;;;;;15.79;62.46;99702.53;6278869;20;3606533;-56
2022/05/02 07:03:25;;;;;;;;;25.00;24.00;;;;;15.64;64.02;99697.50;6281290;20;2846232;-51
2022/05/02 07:06:36;;;;;;;;;26.33;23.67;;;;;15.59;63.57;99700.59;6313232;20;3600281;-54
2022/05/02 07:09:13;;;;;;;;;28.00;25.50;;;;;15.64;64.56;99692.97;6282799;20;3477412;-54
2022/05/02 07:12:06;;;;;;;;;26.67;25.67;;;;;16.00;62.77;99696.31;6316224;20;3588799;-52
2022/05/02 07:14:53;;;;;;;;;24.67;22.67;;;;;15.80;62.75;99692.59;6286208;20;3600240;-53
2022/05/02 07:17:42;;;;;;;;;26.00;24.67;;;;;15.96;61.94;99694.88;6288218;20;3592933;-49
2022/05/02 07:20:52;;;;;;;;;26.67;25.33;;;;;16.08;61.99;99691.09;6288036;20;3590936;-55
2022/05/02 07:24:08;;;;;;;;;28.00;26.50;;;;;15.81;61.36;99691.59;6283008;20;2852422;-50
2022/05/02 07:26:39;;;;;;;;;25.67;22.67;;;;;16.17;60.97;99692.19;6284070;20;2854499;-50
2022/05/02 07:29:11;;;;;;;;;23.00;21.00;;;;;16.46;59.85;99695.97;6309245;20;2841004;-48
2022/05/02 07:31:40;;;;;;;;;20.00;18.50;;;;;16.47;58.69;99686.00;6282803;20;2492012;-49
2022/05/02 07:34:15;;;;;;;;;19.50;18.50;;;;;16.71;58.68;99693.84;6280779;20;2808591;-50
2022/05/02 07:36:52;;;;;;;;;19.00;19.00;;;;;16.94;57.99;99699.16;6284298;20;2837746;-50
2022/05/02 07:39:22;;;;;;;;;19.50;19.50;;;;;16.98;58.88;99692.44;6284777;20;2831481;-52
2022/05/02 07:41:51;;;;;;;;;18.00;18.00;;;;;17.00;57.46;99698.59;6282253;20;2839851;-50
2022/05/02 07:44:24;;;;;;;;;21.50;19.00;;;;;17.23;57.98;99689.28;6282357;20;2836797;-49
2022/05/02 07:46:57;;;;;;;;;18.00;17.00;;;;;17.16;57.90;99692.69;6286132;20;2829425;-49
2022/05/02 07:49:29;;;;;;;;;15.50;14.00;;;;;17.06;58.42;99692.63;6283688;20;2816213;-47
2022/05/02 07:51:58;;;;;;;;;17.50;14.00;;;;;17.19;57.26;99687.84;6286048;20;2815936;-55
2022/05/02 07:54:34;;;;;;;;;16.00;16.00;;;;;17.52;56.19;99693.97;6284729;20;3569169;-53
2022/05/02 07:57:05;;;;;;;;;12.00;12.00;;;;;17.69;55.11;99689.69;6284140;20;2786759;-54
2022/05/02 07:59:43;;;;;;;;;14.33;12.33;;;;;17.31;55.45;99691.31;6283105;20;3523155;-54
2022/05/02 08:02:11;;;;;;;;;15.50;15.00;;;;;17.41;56.31;99694.94;6315552;20;2492013;-51
2022/05/02 08:04:44;;;;;;;;;11.00;11.00;;;;;17.66;54.41;99690.84;6282520;20;3515214;-55
2022/05/02 08:07:44;;;;;;;;;19.00;16.33;;;;;18.09;53.88;99695.09;6317938;20;3561687;-53
2022/05/02 08:10:55;;;;;;;;;15.00;15.00;;;;;18.22;54.60;99683.94;6313496;20;2483703;-52
2022/05/02 08:14:07;;;;;;;;;17.50;13.00;;;;;18.57;52.76;99693.34;6282924;20;2806524;-52
2022/05/02 08:16:59;;;;;;;;;15.00;14.00;;;;;18.49;54.35;99694.06;6282385;20;2492085;-55
2022/05/02 08:20:20;;;;;;;;;14.00;14.00;;;;;18.43;52.94;99681.91;6280148;20;3530516;-52
2022/05/02 08:27:24;;;;;;;;;15.00;14.00;;;;;18.79;51.68;99693.03;6284803;20;2810710;-52
2022/05/02 08:30:24;;;;;;;;;15.00;12.00;;;;;18.96;50.65;99680.53;6279965;20;3537742;-54
2022/05/02 08:33:08;;;;;;;;;12.00;12.00;;;;;19.28;49.55;99680.13;6284567;20;2795084;-54
2022/05/02 08:36:03;;;;;;;;;14.50;13.50;;;;;19.22;49.49;99682.56;6316643;20;2793998;-55
2022/05/02 08:38:55;;;;;;;;;11.67;11.67;;;;;19.93;48.97;99680.03;6285266;20;2811734;-56
2022/05/02 08:41:31;;;;;;;;;12.80;11.20;;;;;20.17;48.68;99689.47;6337819;20;2796149;-56
2022/05/02 08:45:04;;;;;;;;;11.67;10.33;;;;;20.33;48.15;99675.13;6283351;20;3517932;-54
2022/05/02 08:48:05;;;;;;;;;11.33;10.00;;;;;20.27;46.38;99675.75;6314644;20;2483604;-56
2022/05/02 08:51:33;;;;;;;;;10.67;10.33;;;;;21.21;45.62;99681.38;6316219;20;2788818;-58
2022/05/02 08:55:06;;;;;;;;;13.00;12.00;;;;;20.16;46.28;99679.56;6311413;20;2788855;-59
2022/05/02 08:58:37;;;;;;;;;10.33;9.33;;;;;20.30;47.60;99679.03;6310846;20;2776290;-59
2022/05/02 09:02:04;;;;;;;;;10.33;9.33;;;;;20.19;46.52;99679.25;6312658;20;2776314;-56
2022/05/02 09:05:21;;;;;;;;;9.00;9.00;;;;;20.14;49.16;99665.22;6320161;20;2755547;-58
2022/05/02 09:08:03;;;;;;;;;13.00;10.50;;;;;19.84;47.81;99667.34;6283877;20;2788824;-58
2022/05/02 09:11:31;;;;;;;;;9.00;8.00;;;;;20.00;47.50;99668.50;6277218;20;2752341;-58
2022/05/02 09:15:10;;;;;;;;;9.60;7.60;;;;;20.59;47.80;99664.28;6340054;20;2758585;-59
2022/05/02 09:18:30;;;;;;;;;9.67;9.00;;;;;20.26;47.26;99666.72;6279957;20;2756540;-57
2022/05/02 09:21:28;;;;;;;;;7.00;7.00;;;;;20.47;45.34;99663.66;6336340;20;2754570;-59
2022/05/02 09:24:30;;;;;;;;;10.33;9.00;;;;;19.90;47.93;99658.53;6286971;20;2766971;-59
2022/05/02 09:27:14;;;;;;;;;7.20;7.20;;;;;19.94;46.06;99659.94;6338508;20;2741969;-58
2022/05/02 09:30:33;;;;;;;;;7.00;7.00;;;;;19.88;45.39;99655.13;6314051;20;2741923;-58
2022/05/02 09:33:34;;;;;;;;;6.00;6.00;;;;;20.31;45.19;99656.19;6341260;20;2746173;-59
2022/05/02 09:36:30;;;;;;;;;8.60;8.00;;;;;20.09;44.91;99657.53;6337822;20;2760056;-58
2022/05/02 09:39:15;;;;;;;;;9.80;9.80;;;;;20.58;45.57;99652.50;6308667;20;2794028;-59
2022/05/02 09:43:08;;;;;;;;;12.67;8.00;;;;;21.19;45.56;99653.38;6329373;20;1808707;-59
2022/05/02 09:49:43;;;;;;;;;5.60;5.60;;;;;21.17;42.24;99646.34;6308107;20;2749206;-59
2022/05/02 09:52:29;;;;;;;;;7.60;7.60;;;;;21.25;42.83;99646.41;6308641;20;2749234;-58
2022/05/02 09:58:41;;;;;;;;;8.00;8.00;;;;;21.62;43.26;99634.28;6311539;20;2756908;-58
2022/05/02 10:20:18;;;;;;;;;12.00;11.14;;;;;20.43;45.20;99607.69;6299548;20;3513031;-54
2022/05/02 10:23:19;;;;;;;;;8.00;8.00;;;;;20.53;47.47;99599.41;6354100;20;2749265;-55
2022/05/02 10:26:06;;;;;;;;;8.67;8.67;;;;;20.55;45.32;99597.41;6311583;20;2750698;-58
2022/05/02 10:28:59;;;;;;;;;8.40;8.40;;;;;20.66;45.95;99594.41;6368837;20;2752492;-57
2022/05/02 10:31:35;;;;;;;;;10.00;8.33;;;;;20.50;44.78;99595.13;6311396;20;2771088;-58
2022/05/02 10:34:05;;;;;;;;;18.67;12.00;;;;;20.90;46.72;99593.69;6347197;20;3543945;-57
2022/05/02 10:36:41;;;;;;;;;8.40;8.40;;;;;20.94;44.41;99591.50;6338953;20;2745013;-58
2022/05/02 10:39:50;;;;;;;;;10.20;9.00;;;;;21.22;46.16;99595.72;6368938;20;2782555;-60
2022/05/02 10:50:23;;;;;;;;;11.00;9.67;;;;;21.19;45.61;99586.97;6340685;20;2783625;-59
2022/05/02 10:53:31;;;;;;;;;8.00;8.00;;;;;21.12;45.27;99589.53;6346741;20;2754449;-59
2022/05/02 10:56:35;;;;;;;;;9.67;9.67;;;;;21.25;45.56;99581.72;6343055;20;2778638;-58
2022/05/02 10:59:06;;;;;;;;;7.00;7.00;;;;;21.22;44.06;99582.06;6347721;20;2756590;-59
2022/05/02 11:02:05;;;;;;;;;10.00;9.00;;;;;21.16;44.41;99579.13;6344237;20;2769013;-60
2022/05/02 11:05:14;;;;;;;;;12.80;10.20;;;;;21.03;45.16;99585.88;6368122;20;2792946;-59
2022/05/02 11:08:09;;;;;;;;;11.00;11.00;;;;;20.71;45.55;99578.41;6315505;20;2788912;-59
2022/05/02 11:11:05;;;;;;;;;11.00;8.00;;;;;21.21;45.43;99576.75;6346776;20;2764825;-59
2022/05/02 11:13:55;;;;;;;;;8.20;8.20;;;;;21.17;46.01;99568.06;6363954;20;2742964;-60
2022/05/02 11:16:43;;;;;;;;;7.67;7.67;;;;;21.58;45.43;99581.81;6307387;20;2754467;-58
2022/05/02 11:22:43;;;;;;;;;10.00;10.00;;;;;21.87;44.14;99575.03;6305786;20;2776486;-59
2022/05/02 11:25:21;;;;;;;;;11.00;11.00;;;;;21.87;42.96;99577.75;6344349;20;2793062;-59
2022/05/02 11:28:23;;;;;;;;;8.67;8.00;;;;;22.55;41.57;99574.66;6338485;20;2750354;-59
2022/05/02 11:31:45;;;;;;;;;13.00;9.00;;;;;22.16;42.07;99576.41;6318374;20;2774235;-59
2022/05/02 11:34:52;;;;;;;;;8.00;8.00;;;;;22.32;41.31;99576.41;6320494;20;2631505;-59
2022/05/02 11:38:07;;;;;;;;;11.33;10.67;;;;;22.56;41.62;99570.03;6314400;20;3514824;-58
2022/05/02 11:40:47;;;;;;;;;27.33;25.33;;;;;22.75;41.50;99575.13;6316485;20;3598148;-55
2022/05/02 11:43:22;;;;;;;;;11.00;8.00;;;;;22.79;41.33;99556.47;6309019;20;2771081;-57
2022/05/02 11:46:22;;;;;;;;;8.00;8.00;;;;;22.97;42.22;99559.84;6288175;20;2749233;-57
2022/05/02 11:50:05;;;;;;;;;7.33;7.33;;;;;22.82;40.77;99553.38;6315793;20;2742015;-58
2022/05/02 11:52:39;;;;;;;;;9.00;7.00;;;;;22.49;42.20;99561.69;6325449;20;2728420;-58
2022/05/02 11:55:09;;;;;;;;;10.00;9.00;;;;;22.81;40.67;99559.88;6313951;20;2760688;-55
2022/05/02 11:57:53;;;;;;;;;11.00;9.33;;;;;23.34;38.98;99550.09;6314778;20;2781545;-55
2022/05/02 12:00:33;;;;;;;;;8.00;8.00;;;;;23.71;39.15;99555.84;6342635;20;2754437;-54
2022/05/02 12:03:23;;;;;;;;;10.33;9.67;;;;;23.58;40.29;99550.97;6282943;20;2781591;-58
2022/05/02 12:05:58;;;;;;;;;8.33;8.33;;;;;23.40;40.29;99535.66;6326675;20;2745106;-57
2022/05/02 12:08:42;;;;;;;;;10.00;7.00;;;;;23.97;38.50;99544.53;6313561;20;2759678;-55
2022/05/02 12:11:15;;;;;;;;;8.00;8.00;;;;;23.57;39.12;99538.31;6315122;20;2742014;-56
2022/05/02 12:13:47;;;;;;;;;7.00;7.00;;;;;23.62;38.77;99531.25;6344206;20;2754526;-56
2022/05/02 12:16:20;;;;;;;;;8.33;8.00;;;;;23.98;38.74;99535.25;6285913;20;2738785;-57
2022/05/02 12:18:57;;;;;;;;;9.00;6.60;;;;;24.01;37.74;99529.41;6340916;20;2740933;-60
2022/05/02 12:21:48;;;;;;;;;8.00;8.00;;;;;24.28;38.26;99534.28;6287071;20;2745050;-59
2022/05/02 12:24:34;;;;;;;;;10.00;8.00;;;;;23.45;37.99;99525.00;6314014;20;2769152;-59
2022/05/02 12:27:09;;;;;;;;;9.33;8.33;;;;;24.46;37.71;99522.13;6314569;20;2756575;-59
2022/05/02 12:29:42;;;;;;;;;7.00;6.00;;;;;24.32;38.02;99521.03;6317897;20;2736720;-59
2022/05/02 12:32:13;;;;;;;;;7.20;7.20;;;;;24.48;38.66;99520.91;6337876;20;2745106;-58
2022/05/02 12:34:51;;;;;;;;;8.33;7.33;;;;;23.39;38.06;99514.78;6287151;20;2734655;-58
2022/05/02 12:37:36;;;;;;;;;7.80;7.80;;;;;23.67;38.22;99515.09;6336273;20;2752381;-59
2022/05/02 12:40:09;;;;;;;;;7.20;7.20;;;;;23.75;37.80;99508.72;6305700;20;2747221;-58
2022/05/02 12:42:56;;;;;;;;;8.67;8.67;;;;;23.34;38.49;99508.13;6289184;20;2746249;-58
2022/05/02 12:45:24;;;;;;;;;8.00;8.00;;;;;23.15;39.63;99503.97;6311901;20;2752338;-59
2022/05/02 12:48:00;;;;;;;;;10.00;7.00;;;;;22.91;39.67;99504.94;6315380;20;2756552;-59
2022/05/02 12:50:30;;;;;;;;;8.00;8.00;;;;;22.68;40.44;99493.91;6308687;20;2746180;-58
2022/05/02 12:53:04;;;;;;;;;8.60;7.20;;;;;22.85;39.95;99491.94;6340884;20;2748205;-59
2022/05/02 12:55:39;;;;;;;;;8.00;8.00;;;;;22.47;39.41;99492.59;6292339;20;2750311;-58
2022/05/02 13:01:04;;;;;;;;;10.40;8.60;;;;;22.47;40.32;99484.41;6307749;20;2771135;-55
2022/05/02 13:03:34;;;;;;;;;10.67;8.67;;;;;22.21;41.13;99483.78;6291401;20;2766044;-58
2022/05/02 13:06:09;;;;;;;;;9.00;9.00;;;;;22.16;40.55;99477.94;6314313;20;2746196;-58
2022/05/02 13:08:43;;;;;;;;;9.00;9.00;;;;;22.33;41.42;99485.97;6337381;20;2756502;-56
2022/05/02 13:11:21;;;;;;;;;12.00;10.00;;;;;22.34;40.02;99475.88;6281407;20;2789899;-58